Time;durP1;ratioP1;P1;durP2;ratioP2;P2;SDS_P1;SDS_P2;PMS_P1;PMS_P2;Temp;Humidity;BMP_temperature;BMP_pressure;BME280_temperature;BME280_humidity;BME280_pressure;Samples;Min_cycle;Max_cycle;Signal;HPM_P1;HPM_P2
2021/05/04 00:02:15;;;;;;;4.20;3.73;;;12.30;66.80;;;;;;5053381;28;20585;-69
2021/05/04 00:04:41;;;;;;;5.00;4.60;;;12.30;66.70;;;;;;5053567;28;20447;-70
2021/05/04 00:07:06;;;;;;;4.20;3.83;;;12.30;66.80;;;;;;5053295;28;20171;-69
2021/05/04 00:09:32;;;;;;;3.60;3.30;;;12.20;66.90;;;;;;5053459;28;20719;-69
2021/05/04 00:11:58;;;;;;;8.27;4.00;;;12.30;66.90;;;;;;5054076;28;20558;-70
2021/05/04 00:14:23;;;;;;;4.00;3.70;;;12.20;66.90;;;;;;5053317;28;20178;-70
2021/05/04 00:16:49;;;;;;;4.30;3.70;;;12.20;67.00;;;;;;5053676;28;20555;-69
2021/05/04 00:19:14;;;;;;;3.90;3.60;;;12.20;66.90;;;;;;5052938;28;20206;-69
2021/05/04 00:21:40;;;;;;;4.20;3.80;;;12.20;67.10;;;;;;5053046;28;20162;-69
2021/05/04 00:24:06;;;;;;;5.10;3.77;;;12.20;67.20;;;;;;5053333;28;20231;-70
2021/05/04 00:26:32;;;;;;;4.60;3.60;;;12.20;67.10;;;;;;5053232;28;20924;-70
2021/05/04 00:28:58;;;;;;;3.90;3.60;;;12.30;67.30;;;;;;5052568;28;20437;-69
2021/05/04 00:31:24;;;;;;;3.40;3.20;;;12.20;67.30;;;;;;5053762;28;20429;-69
2021/05/04 00:33:49;;;;;;;4.40;4.00;;;12.20;67.10;;;;;;5053279;28;20285;-69
2021/05/04 00:36:15;;;;;;;3.97;3.57;;;12.30;67.10;;;;;;5053054;28;20236;-70
2021/05/04 00:38:40;;;;;;;3.53;3.23;;;12.20;67.30;;;;;;5053103;28;20534;-69
2021/05/04 00:41:06;;;;;;;3.97;3.67;;;12.30;67.30;;;;;;5065131;28;20190;-69
2021/05/04 00:43:32;;;;;;;3.50;3.20;;;12.20;67.00;;;;;;5065170;28;20250;-69
2021/05/04 00:45:59;;;;;;;3.30;3.10;;;12.30;67.30;;;;;;5060012;28;20170;-69
2021/05/04 00:48:25;;;;;;;3.77;3.53;;;12.30;67.40;;;;;;5052925;28;20441;-69
2021/05/04 00:50:51;;;;;;;2.97;2.77;;;12.30;67.30;;;;;;5053273;28;20419;-70
2021/05/04 00:53:17;;;;;;;3.80;3.47;;;12.30;67.30;;;;;;5053458;28;20491;-70
2021/05/04 00:55:43;;;;;;;4.10;3.70;;;12.20;67.40;;;;;;5053173;28;20249;-70
2021/05/04 00:58:10;;;;;;;3.37;3.10;;;12.20;67.40;;;;;;5053416;28;20181;-70
2021/05/04 01:00:36;;;;;;;4.20;3.30;;;12.30;67.60;;;;;;5056926;28;20945;-70
2021/05/04 01:03:03;;;;;;;3.60;3.30;;;12.20;67.50;;;;;;5057572;28;20434;-70
2021/05/04 01:05:29;;;;;;;4.30;3.47;;;12.30;67.60;;;;;;5057348;28;20408;-70
2021/05/04 01:07:54;;;;;;;7.68;3.10;;;12.30;67.60;;;;;;5056640;28;20410;-70
2021/05/04 01:10:20;;;;;;;3.60;3.30;;;12.20;67.60;;;;;;5056828;28;20198;-70
2021/05/04 01:12:46;;;;;;;3.60;3.30;;;12.30;67.70;;;;;;5057222;28;20194;-70
2021/05/04 01:15:12;;;;;;;3.67;3.37;;;12.30;67.70;;;;;;5056594;28;20174;-70
2021/05/04 01:17:37;;;;;;;3.63;3.07;;;12.30;67.60;;;;;;5056373;28;20420;-70
2021/05/04 01:20:04;;;;;;;3.00;2.80;;;12.30;67.50;;;;;;5056194;28;20202;-70
2021/05/04 01:22:30;;;;;;;4.67;3.50;;;12.30;67.50;;;;;;5056957;28;20178;-70
2021/05/04 01:24:55;;;;;;;3.10;2.87;;;12.40;67.60;;;;;;5057140;28;20915;-70
2021/05/04 01:27:21;;;;;;;3.27;3.03;;;12.30;67.50;;;;;;5056448;28;20186;-70
2021/05/04 01:29:46;;;;;;;3.60;3.10;;;12.30;67.50;;;;;;5056315;28;20202;-70
2021/05/04 01:32:14;;;;;;;3.77;3.03;;;12.40;67.70;;;;;;5056065;28;20170;-70
2021/05/04 01:34:40;;;;;;;2.97;2.77;;;12.40;67.80;;;;;;5056731;28;20170;-70
2021/05/04 01:37:06;;;;;;;3.60;3.30;;;12.40;67.70;;;;;;5056667;28;20410;-70
2021/05/04 01:39:44;;;;;;;3.10;2.80;;;12.40;67.80;;;;;;5056341;28;20561;-70
2021/05/04 01:42:10;;;;;;;3.07;2.77;;;12.40;67.80;;;;;;5056136;28;20158;-70
2021/05/04 01:44:36;;;;;;;6.33;3.90;;;12.40;67.80;;;;;;5056406;28;20405;-70
2021/05/04 01:47:02;;;;;;;3.10;2.80;;;12.40;67.90;;;;;;5055910;28;20894;-70
2021/05/04 01:49:28;;;;;;;3.30;3.00;;;12.40;67.90;;;;;;5054849;28;20428;-69
2021/05/04 01:51:55;;;;;;;3.67;3.20;;;12.40;67.90;;;;;;5055760;28;20768;-69
2021/05/04 01:54:22;;;;;;;2.57;2.47;;;12.40;68.00;;;;;;5056742;28;20261;-69
2021/05/04 01:56:49;;;;;;;2.90;2.60;;;12.40;68.10;;;;;;5055905;28;20796;-69
2021/05/04 01:59:14;;;;;;;4.80;3.00;;;12.40;68.10;;;;;;5055684;28;20894;-69
2021/05/04 02:01:40;;;;;;;2.77;2.57;;;12.40;68.00;;;;;;5055991;28;20428;-70
2021/05/04 02:04:05;;;;;;;3.30;2.80;;;12.40;68.10;;;;;;5056085;28;20182;-70
2021/05/04 02:06:31;;;;;;;3.63;2.80;;;12.40;68.10;;;;;;5056234;28;20190;-70
2021/05/04 02:08:56;;;;;;;2.57;2.37;;;12.40;68.10;;;;;;5055031;28;20562;-70
2021/05/04 02:11:22;;;;;;;3.33;3.03;;;12.50;68.20;;;;;;5056140;28;20177;-70
2021/05/04 02:13:47;;;;;;;3.20;2.90;;;12.50;68.10;;;;;;5055206;28;20170;-72
2021/05/04 02:16:13;;;;;;;3.30;2.73;;;12.50;68.20;;;;;;5055825;28;20186;-70
2021/05/04 02:18:39;;;;;;;4.20;2.40;;;12.50;68.30;;;;;;5054495;28;20552;-71
2021/05/04 02:21:04;;;;;;;4.40;2.60;;;12.50;68.30;;;;;;5055879;28;20202;-71
2021/05/04 02:23:31;;;;;;;2.97;2.70;;;12.50;68.30;;;;;;5054407;28;20185;-70
2021/05/04 02:25:57;;;;;;;2.87;2.50;;;12.50;68.30;;;;;;5055538;28;20170;-70
2021/05/04 02:28:23;;;;;;;3.70;2.50;;;12.50;68.30;;;;;;5055146;28;20960;-70
2021/05/04 02:30:48;;;;;;;3.00;2.80;;;12.50;68.40;;;;;;5056261;28;20440;-70
2021/05/04 02:33:14;;;;;;;2.50;2.30;;;12.40;68.70;;;;;;5055328;28;20305;-70
2021/05/04 02:35:40;;;;;;;2.77;2.57;;;12.40;69.20;;;;;;5054746;28;20182;-70
2021/05/04 02:38:05;;;;;;;9.50;2.80;;;12.30;70.30;;;;;;5054953;28;20182;-70
2021/05/04 02:40:31;;;;;;;2.27;2.10;;;12.20;72.10;;;;;;5054855;28;20547;-70
2021/05/04 02:42:56;;;;;;;2.67;2.07;;;12.20;74.90;;;;;;5054808;28;20232;-70
2021/05/04 02:45:22;;;;;;;2.20;1.90;;;12.10;76.20;;;;;;5054398;28;20560;-70
2021/05/04 02:47:47;;;;;;;4.87;2.67;;;12.00;80.40;;;;;;5055037;28;20186;-71
2021/05/04 02:50:13;;;;;;;13.30;2.97;;;11.80;83.80;;;;;;5054997;28;20198;-70
2021/05/04 02:52:39;;;;;;;10.33;2.97;;;11.70;86.40;;;;;;5055450;28;20257;-69
2021/05/04 02:55:05;;;;;;;5.00;2.20;;;11.50;87.90;;;;;;5054479;28;20448;-70
2021/05/04 02:57:31;;;;;;;4.17;2.20;;;11.30;88.60;;;;;;5054002;28;20186;-71
2021/05/04 02:59:57;;;;;;;2.40;2.20;;;11.30;90.70;;;;;;5054812;28;20471;-70
2021/05/04 03:02:22;;;;;;;3.17;1.83;;;11.20;91.10;;;;;;5055250;28;20549;-70
2021/05/04 03:04:48;;;;;;;3.33;2.47;;;11.20;92.40;;;;;;5054422;28;20211;-70
2021/05/04 03:07:13;;;;;;;3.30;2.40;;;11.20;93.30;;;;;;5054402;28;20214;-70
2021/05/04 03:10:29;;;;;;;2.40;1.87;;;11.10;93.90;;;;;;5054315;28;20289;-71
2021/05/04 03:12:55;;;;;;;3.03;2.03;;;11.00;94.50;;;;;;5054316;28;20591;-70
2021/05/04 03:15:21;;;;;;;2.13;1.90;;;11.00;95.90;;;;;;5054905;28;20437;-70
2021/05/04 03:17:46;;;;;;;2.17;1.77;;;10.90;96.40;;;;;;5054016;28;20196;-70
2021/05/04 03:20:12;;;;;;;3.23;2.47;;;11.00;96.90;;;;;;5052613;28;21067;-70
2021/05/04 03:22:38;;;;;;;4.87;2.57;;;10.90;97.60;;;;;;5053521;28;20185;-70
2021/05/04 03:25:04;;;;;;;2.50;2.30;;;10.90;98.30;;;;;;5053226;28;20916;-70
2021/05/04 03:27:30;;;;;;;2.40;1.80;;;10.90;98.90;;;;;;5052734;28;20176;-70
2021/05/04 03:29:56;;;;;;;3.83;2.10;;;10.70;99.80;;;;;;5053874;28;20463;-70
2021/05/04 03:32:21;;;;;;;2.47;2.27;;;10.60;99.90;;;;;;5054327;28;20544;-70
2021/05/04 03:34:47;;;;;;;5.10;2.50;;;10.60;99.90;;;;;;5053275;28;20210;-70
2021/05/04 03:37:12;;;;;;;3.90;2.13;;;10.60;99.90;;;;;;5054566;28;20213;-70
2021/05/04 03:39:38;;;;;;;3.07;2.20;;;10.60;99.90;;;;;;5053755;28;20205;-70
2021/05/04 03:42:04;;;;;;;2.00;1.90;;;10.50;99.90;;;;;;5054006;28;20170;-70
2021/05/04 03:44:29;;;;;;;4.73;2.73;;;10.40;99.90;;;;;;5053992;28;20647;-70
2021/05/04 03:46:55;;;;;;;4.50;2.23;;;10.40;99.90;;;;;;5053767;28;20275;-70
2021/05/04 03:49:20;;;;;;;4.43;2.77;;;10.40;99.90;;;;;;5053206;28;20266;-70
2021/05/04 03:51:46;;;;;;;2.70;2.50;;;10.40;99.90;;;;;;5054646;28;20173;-69
2021/05/04 03:54:11;;;;;;;3.63;2.97;;;10.40;99.90;;;;;;5054662;28;20612;-70
2021/05/04 03:56:37;;;;;;;3.23;2.70;;;10.40;99.90;;;;;;5053851;28;20628;-69
2021/05/04 03:59:03;;;;;;;2.53;2.37;;;10.40;99.90;;;;;;5054124;28;20200;-69
2021/05/04 04:01:28;;;;;;;3.40;3.10;;;10.20;99.90;;;;;;5055511;28;20206;-69
2021/05/04 04:03:54;;;;;;;3.80;3.20;;;10.10;99.90;;;;;;5054309;28;20180;-69
2021/05/04 04:06:19;;;;;;;3.80;2.90;;;10.00;99.90;;;;;;5053598;28;20235;-69
2021/05/04 04:08:46;;;;;;;3.73;2.60;;;10.00;99.90;;;;;;5053560;28;20198;-69
2021/05/04 04:11:13;;;;;;;3.40;3.10;;;10.00;99.90;;;;;;5053391;28;20180;-69
2021/05/04 04:13:38;;;;;;;3.43;3.17;;;10.00;99.90;;;;;;5053882;28;20472;-69
2021/05/04 04:16:04;;;;;;;4.70;3.77;;;9.90;99.90;;;;;;5053630;28;20947;-70
2021/05/04 04:18:29;;;;;;;3.63;3.33;;;10.00;99.90;;;;;;5054087;28;20181;-69
2021/05/04 04:20:55;;;;;;;3.23;2.63;;;10.00;99.90;;;;;;5053540;28;20239;-69
2021/05/04 04:23:22;;;;;;;4.20;2.30;;;9.90;99.90;;;;;;5051844;28;20200;-70
2021/05/04 04:25:47;;;;;;;2.60;2.40;;;9.90;99.90;;;;;;5054131;28;20631;-70
2021/05/04 04:28:13;;;;;;;4.97;2.70;;;9.90;99.90;;;;;;5054193;28;20440;-70
2021/05/04 04:30:38;;;;;;;3.40;3.10;;;9.90;99.90;;;;;;5053558;28;20213;-70
2021/05/04 04:33:05;;;;;;;2.90;2.60;;;9.90;99.90;;;;;;5055842;28;20551;-70
2021/05/04 04:35:30;;;;;;;4.70;2.30;;;9.80;99.90;;;;;;5063290;28;20173;-70
2021/05/04 04:37:56;;;;;;;4.57;2.90;;;9.70;99.90;;;;;;5057547;28;20898;-70
2021/05/04 04:40:21;;;;;;;3.13;2.60;;;9.70;99.90;;;;;;5057254;28;20209;-70
2021/05/04 04:42:47;;;;;;;2.63;2.43;;;9.70;99.90;;;;;;5057316;28;20178;-70
2021/05/04 04:45:13;;;;;;;2.60;2.27;;;9.70;99.90;;;;;;5057516;28;20159;-69
2021/05/04 04:47:38;;;;;;;3.10;2.47;;;9.70;99.90;;;;;;5054073;28;20225;-70
2021/05/04 04:50:05;;;;;;;2.43;2.20;;;9.70;99.90;;;;;;5049772;28;20216;-72
2021/05/04 04:52:30;;;;;;;2.10;2.00;;;9.70;99.90;;;;;;5037997;28;20176;-70
2021/05/04 04:54:56;;;;;;;4.13;2.60;;;9.70;99.90;;;;;;5053109;28;20532;-70
2021/05/04 04:57:22;;;;;;;5.20;2.37;;;9.70;99.90;;;;;;5042673;28;20210;-70
2021/05/04 04:59:49;;;;;;;1.90;1.80;;;9.70;99.90;;;;;;5046397;28;20217;-70
2021/05/04 05:02:16;;;;;;;2.80;2.37;;;9.70;99.90;;;;;;5045770;28;20604;-70
2021/05/04 05:04:42;;;;;;;3.00;2.63;;;9.70;99.90;;;;;;5051650;28;20449;-70
2021/05/04 05:07:08;;;;;;;2.53;2.33;;;9.80;99.90;;;;;;5045657;28;20451;-70
2021/05/04 05:09:35;;;;;;;2.80;2.27;;;9.80;99.90;;;;;;5047624;28;20443;-70
2021/05/04 05:12:05;;;;;;;2.53;2.33;;;9.80;99.90;;;;;;5048307;28;20177;-70
2021/05/04 05:14:36;;;;;;;3.20;2.50;;;9.90;99.90;;;;;;5046167;28;20965;-70
2021/05/04 05:17:02;;;;;;;2.60;2.33;;;9.90;99.90;;;;;;5051403;28;20831;-70
2021/05/04 05:19:28;;;;;;;2.10;2.00;;;9.90;99.90;;;;;;5045198;28;20438;-70
2021/05/04 05:21:54;;;;;;;2.80;2.30;;;9.90;99.90;;;;;;5037297;28;20412;-70
2021/05/04 05:24:19;;;;;;;2.77;2.10;;;9.90;99.90;;;;;;5036606;28;20165;-70
2021/05/04 05:26:45;;;;;;;4.23;3.17;;;9.90;99.90;;;;;;5050887;28;20423;-70
2021/05/04 05:29:11;;;;;;;2.63;2.10;;;9.90;99.90;;;;;;5056079;28;20201;-70
2021/05/04 05:31:37;;;;;;;2.00;1.90;;;9.90;99.90;;;;;;5056682;28;20389;-70
2021/05/04 05:34:03;;;;;;;2.50;2.07;;;9.90;99.90;;;;;;5056514;28;20397;-69
2021/05/04 05:36:30;;;;;;;2.40;1.90;;;9.90;99.90;;;;;;5057287;28;20281;-68
2021/05/04 05:38:56;;;;;;;2.40;2.20;;;10.00;99.90;;;;;;5055950;28;20428;-69
2021/05/04 05:41:21;;;;;;;2.03;1.83;;;9.90;99.90;;;;;;5056796;28;20776;-69
2021/05/04 05:43:47;;;;;;;2.10;2.00;;;9.90;99.90;;;;;;5045254;28;20217;-68
2021/05/04 05:46:12;;;;;;;3.20;2.23;;;9.90;99.90;;;;;;5041265;28;20273;-69
2021/05/04 05:48:38;;;;;;;2.27;2.07;;;9.90;99.90;;;;;;5044895;28;20210;-69
2021/05/04 05:51:04;;;;;;;4.53;2.17;;;9.90;99.90;;;;;;5048537;28;20184;-69
2021/05/04 05:53:31;;;;;;;2.10;2.00;;;9.80;99.90;;;;;;5049703;28;20202;-69
2021/05/04 05:55:56;;;;;;;3.37;2.00;;;9.70;99.90;;;;;;5043587;28;20521;-68
2021/05/04 05:58:22;;;;;;;2.40;2.20;;;9.70;99.90;;;;;;5044220;28;20556;-68
2021/05/04 06:00:48;;;;;;;2.20;2.10;;;9.70;99.90;;;;;;5050415;28;20324;-69
2021/05/04 06:03:13;;;;;;;2.80;2.23;;;9.70;99.90;;;;;;5050103;28;20207;-69
2021/05/04 06:05:39;;;;;;;2.33;2.13;;;9.70;99.90;;;;;;5052095;28;20194;-68
2021/05/04 06:08:05;;;;;;;2.30;2.10;;;9.80;99.90;;;;;;5052994;28;20189;-69
2021/05/04 06:10:31;;;;;;;2.50;2.10;;;9.70;99.90;;;;;;5053754;28;20200;-69
2021/05/04 06:13:05;;;;;;;2.80;2.40;;;9.70;99.90;;;;;;5056199;28;20422;-68
2021/05/04 06:15:32;;;;;;;2.33;2.13;;;9.80;99.90;;;;;;5051300;28;20465;-68
2021/05/04 06:17:57;;;;;;;2.30;1.70;;;9.80;99.90;;;;;;5051875;28;20427;-69
2021/05/04 06:20:23;;;;;;;2.30;2.10;;;9.80;99.90;;;;;;5065688;28;20437;-68
2021/05/04 06:22:49;;;;;;;2.10;2.00;;;9.80;99.90;;;;;;5050814;28;20839;-69
2021/05/04 06:25:15;;;;;;;2.10;2.00;;;9.90;99.90;;;;;;5050208;28;20184;-69
2021/05/04 06:27:41;;;;;;;2.03;1.80;;;9.90;99.90;;;;;;5057339;28;20480;-69
2021/05/04 06:30:08;;;;;;;1.80;1.70;;;9.90;99.90;;;;;;5055890;28;20459;-68
2021/05/04 06:32:34;;;;;;;2.80;2.17;;;9.90;99.90;;;;;;5052699;28;20481;-69
2021/05/04 06:35:00;;;;;;;2.80;2.23;;;9.90;99.90;;;;;;5052828;28;20426;-70
2021/05/04 06:37:26;;;;;;;1.63;1.53;;;10.00;99.90;;;;;;5052498;28;20430;-70
2021/05/04 06:39:51;;;;;;;2.40;2.20;;;10.00;99.90;;;;;;5046808;28;20238;-68
2021/05/04 06:42:17;;;;;;;1.60;1.50;;;10.00;99.90;;;;;;5052539;28;20183;-70
2021/05/04 06:44:42;;;;;;;1.87;1.73;;;10.10;99.90;;;;;;5052311;28;20638;-69
2021/05/04 06:47:08;;;;;;;2.00;1.90;;;10.10;99.90;;;;;;5051568;28;20751;-69
2021/05/04 06:49:33;;;;;;;2.50;1.80;;;10.10;99.90;;;;;;5050281;28;20574;-69
2021/05/04 06:51:59;;;;;;;2.40;2.20;;;10.10;99.90;;;;;;5052304;28;20182;-70
2021/05/04 06:54:25;;;;;;;2.27;2.07;;;10.10;99.90;;;;;;5051841;28;20258;-70
2021/05/04 06:56:51;;;;;;;2.10;1.93;;;10.10;99.90;;;;;;5052836;28;20181;-70
2021/05/04 06:59:16;;;;;;;1.80;1.70;;;10.10;99.90;;;;;;5052118;28;20297;-68
2021/05/04 07:01:42;;;;;;;2.00;1.90;;;10.10;99.90;;;;;;5052920;28;20486;-69
2021/05/04 07:04:08;;;;;;;5.13;2.20;;;10.10;99.90;;;;;;5051714;28;20197;-68
2021/05/04 07:06:33;;;;;;;2.43;2.23;;;10.10;99.90;;;;;;5051644;28;20183;-68
2021/05/04 07:08:59;;;;;;;3.37;2.13;;;10.00;99.90;;;;;;5049916;28;20220;-69
2021/05/04 07:11:25;;;;;;;2.03;1.93;;;10.00;99.90;;;;;;5051558;28;20255;-69
2021/05/04 07:13:51;;;;;;;2.33;2.13;;;10.00;99.90;;;;;;5052915;28;20432;-69
2021/05/04 07:16:16;;;;;;;2.37;2.17;;;10.00;99.90;;;;;;5057464;28;20554;-69
2021/05/04 07:18:42;;;;;;;3.90;2.60;;;10.00;99.90;;;;;;5073342;28;20207;-69
2021/05/04 07:21:09;;;;;;;3.83;2.20;;;10.00;99.90;;;;;;5055100;28;20933;-69
2021/05/04 07:23:38;;;;;;;2.37;2.17;;;10.00;99.90;;;;;;5051109;28;20508;-69
2021/05/04 07:26:04;;;;;;;4.20;2.17;;;10.00;99.90;;;;;;5051748;28;20437;-69
2021/05/04 07:28:30;;;;;;;2.03;1.90;;;10.00;99.90;;;;;;5045767;28;20947;-70
2021/05/04 07:30:56;;;;;;;2.73;2.47;;;10.00;99.90;;;;;;5046566;28;20544;-69
2021/05/04 07:33:21;;;;;;;1.70;1.60;;;10.00;99.90;;;;;;5045374;28;20204;-70
2021/05/04 07:35:48;;;;;;;2.43;1.90;;;10.00;99.90;;;;;;5042305;28;20217;-69
2021/05/04 07:38:14;;;;;;;2.17;1.93;;;10.10;99.90;;;;;;5049751;28;20184;-69
2021/05/04 07:40:39;;;;;;;1.87;1.77;;;10.00;99.90;;;;;;5045583;28;20532;-68
2021/05/04 07:43:05;;;;;;;2.23;2.03;;;10.10;99.90;;;;;;5045759;28;20512;-69
2021/05/04 07:45:30;;;;;;;2.10;2.00;;;10.10;99.90;;;;;;5048922;28;20490;-68
2021/05/04 07:47:58;;;;;;;2.57;2.00;;;10.10;99.90;;;;;;5055780;28;20209;-69
2021/05/04 07:50:24;;;;;;;2.53;1.97;;;10.20;99.90;;;;;;5045083;28;20217;-69
2021/05/04 07:52:50;;;;;;;2.43;1.97;;;10.20;99.90;;;;;;5058902;28;20440;-68
2021/05/04 07:55:15;;;;;;;2.10;2.00;;;10.20;99.90;;;;;;5047601;28;20255;-69
2021/05/04 07:57:41;;;;;;;4.67;2.00;;;10.20;99.90;;;;;;5049456;28;20262;-69
2021/05/04 08:00:07;;;;;;;1.87;1.77;;;10.20;99.90;;;;;;5051663;28;20287;-68
2021/05/04 08:02:33;;;;;;;1.73;1.63;;;10.30;99.90;;;;;;5051439;28;20539;-69
2021/05/04 08:04:58;;;;;;;2.27;2.07;;;10.30;99.90;;;;;;5051487;28;20469;-68
2021/05/04 08:07:24;;;;;;;2.20;2.00;;;10.20;99.90;;;;;;5047930;28;20196;-69
2021/05/04 08:09:50;;;;;;;3.10;2.07;;;10.30;99.90;;;;;;5042135;28;20202;-69
2021/05/04 08:12:15;;;;;;;2.43;1.97;;;10.30;99.90;;;;;;5052274;28;20794;-69
2021/05/04 08:14:41;;;;;;;2.03;1.83;;;10.20;99.90;;;;;;5046632;28;20274;-68
2021/05/04 08:17:19;;;;;;;2.07;1.97;;;10.20;99.90;;;;;;5056887;28;20253;-69
2021/05/04 08:19:44;;;;;;;1.90;1.70;;;10.30;99.90;;;;;;5041478;28;20213;-68
2021/05/04 08:22:10;;;;;;;2.00;1.80;;;10.20;99.90;;;;;;5047729;28;20431;-70
2021/05/04 08:24:36;;;;;;;2.27;2.07;;;10.30;99.90;;;;;;5043029;28;20246;-69
2021/05/04 08:27:04;;;;;;;2.93;2.07;;;10.30;99.90;;;;;;5048832;28;20518;-69
2021/05/04 08:29:30;;;;;;;2.80;2.60;;;10.40;99.90;;;;;;5037635;28;20516;-69
2021/05/04 08:31:55;;;;;;;2.53;2.33;;;10.40;99.90;;;;;;5051636;28;20435;-69
2021/05/04 08:34:21;;;;;;;6.67;2.73;;;10.40;99.90;;;;;;5053866;28;20187;-68
2021/05/04 08:36:48;;;;;;;2.50;2.30;;;10.40;99.90;;;;;;5052991;28;20590;-68
2021/05/04 08:39:13;;;;;;;3.07;2.27;;;10.50;99.90;;;;;;5050104;28;20443;-69
2021/05/04 08:41:41;;;;;;;2.03;1.93;;;10.70;99.90;;;;;;5050200;28;21216;-69
2021/05/04 08:44:07;;;;;;;2.60;2.40;;;10.80;99.90;;;;;;5050872;28;20192;-68
2021/05/04 08:46:35;;;;;;;3.00;1.93;;;10.90;99.90;;;;;;5043750;28;20490;-69
2021/05/04 08:49:04;;;;;;;2.47;1.63;;;11.00;99.90;;;;;;5050037;28;20227;-69
2021/05/04 08:51:31;;;;;;;3.60;2.13;;;11.10;99.90;;;;;;5050667;28;20482;-69
2021/05/04 08:53:57;;;;;;;1.80;1.70;;;11.20;99.90;;;;;;5049990;28;20443;-70
2021/05/04 08:56:22;;;;;;;2.73;2.30;;;11.40;99.90;;;;;;5049725;28;20799;-70
2021/05/04 08:58:48;;;;;;;2.70;2.50;;;11.60;99.90;;;;;;5049513;28;20216;-69
2021/05/04 09:01:14;;;;;;;3.60;2.80;;;11.60;99.90;;;;;;5049322;28;20256;-69
2021/05/04 09:03:49;;;;;;;3.00;2.53;;;11.60;99.90;;;;;;5046428;28;20795;-69
2021/05/04 09:06:22;;;;;;;3.17;2.97;;;11.60;99.90;;;;;;5047045;28;20474;-69
2021/05/04 09:09:00;;;;;;;3.50;3.20;;;11.60;99.90;;;;;;5042168;28;20467;-69
2021/05/04 09:11:34;;;;;;;4.00;2.87;;;11.60;99.90;;;;;;5041921;28;20949;-69
2021/05/04 09:16:30;;;;;;;3.10;2.90;;;11.40;99.90;;;;;;5049432;28;20502;-70
2021/05/04 09:21:37;;;;;;;3.73;2.53;;;11.20;99.90;;;;;;5049093;28;21246;-69
2021/05/04 09:24:20;;;;;;;3.17;2.73;;;11.20;99.90;;;;;;5048681;28;20428;-70
2021/05/04 09:26:46;;;;;;;4.93;3.07;;;11.10;99.90;;;;;;5038188;28;20897;-70
2021/05/04 09:29:12;;;;;;;4.07;3.70;;;11.20;99.90;;;;;;5052961;28;20518;-71
2021/05/04 09:31:39;;;;;;;3.60;3.30;;;11.20;99.90;;;;;;5053061;28;20940;-70
2021/05/04 09:34:13;;;;;;;3.13;2.73;;;11.20;99.90;;;;;;5052974;28;20462;-69
2021/05/04 09:36:48;;;;;;;9.40;4.10;;;11.40;99.90;;;;;;5052730;28;20735;-69
2021/05/04 09:39:27;;;;;;;3.37;2.70;;;11.40;99.90;;;;;;5051734;28;20439;-69
2021/05/04 09:41:58;;;;;;;3.77;2.80;;;11.30;99.90;;;;;;5040004;28;20935;-71
2021/05/04 09:44:40;;;;;;;3.93;3.40;;;11.20;99.90;;;;;;5043806;28;20419;-70
2021/05/04 09:47:08;;;;;;;2.70;2.50;;;11.00;99.90;;;;;;5050428;28;20873;-69
2021/05/04 09:49:35;;;;;;;3.73;3.07;;;10.90;99.90;;;;;;5051170;28;21504;-69
2021/05/04 09:52:46;;;;;;;2.70;2.50;;;10.90;99.90;;;;;;5051747;28;20404;-69
2021/05/04 09:55:17;;;;;;;3.90;3.03;;;10.90;99.90;;;;;;5051884;28;20458;-70
2021/05/04 09:57:50;;;;;;;3.50;3.10;;;10.80;99.90;;;;;;5053476;28;20395;-69
2021/05/04 10:00:23;;;;;;;5.27;3.70;;;10.80;99.90;;;;;;5054489;28;20464;-69
2021/05/04 10:02:49;;;;;;;3.80;3.50;;;10.90;99.90;;;;;;5055698;28;20639;-68
2021/05/04 10:05:17;;;;;;;3.23;2.93;;;10.80;99.90;;;;;;5054255;28;20651;-69
2021/05/04 10:07:44;;;;;;;2.63;2.43;;;10.90;99.90;;;;;;5053636;28;20181;-69
2021/05/04 10:10:12;;;;;;;4.27;2.50;;;10.90;99.90;;;;;;5055599;28;20428;-70
2021/05/04 10:12:39;;;;;;;2.40;2.20;;;11.00;99.90;;;;;;5055913;28;20440;-70
2021/05/04 10:15:07;;;;;;;3.13;2.70;;;10.90;99.90;;;;;;5055582;28;20411;-69
2021/05/04 10:17:34;;;;;;;4.10;2.70;;;11.00;99.90;;;;;;5057150;28;20770;-69
2021/05/04 10:20:03;;;;;;;5.10;2.43;;;10.90;99.90;;;;;;5072999;28;20456;-68
2021/05/04 10:22:29;;;;;;;6.20;2.20;;;11.00;99.90;;;;;;5078882;28;20450;-69
2021/05/04 10:24:56;;;;;;;3.20;2.00;;;11.20;99.90;;;;;;5077422;28;20446;-69
2021/05/04 10:27:22;;;;;;;3.50;1.70;;;11.40;99.90;;;;;;5075728;28;20909;-70
2021/05/04 10:29:52;;;;;;;2.20;1.63;;;11.40;99.90;;;;;;5073780;28;20697;-70
2021/05/04 10:32:59;;;;;;;2.07;1.93;;;11.60;99.90;;;;;;5075474;28;20486;-70
2021/05/04 10:35:31;;;;;;;2.70;2.40;;;11.60;99.90;;;;;;5075419;28;20958;-70
2021/05/04 10:38:16;;;;;;;4.40;2.23;;;11.50;99.90;;;;;;5075248;28;20420;-68
2021/05/04 10:40:45;;;;;;;2.07;1.80;;;11.50;99.90;;;;;;5075697;28;20474;-69
2021/05/04 10:43:23;;;;;;;3.00;2.37;;;11.40;99.90;;;;;;5075213;28;20430;-69
2021/05/04 10:45:50;;;;;;;3.40;2.60;;;11.30;99.90;;;;;;5075576;28;20407;-69
2021/05/04 10:48:16;;;;;;;5.77;2.80;;;11.30;99.90;;;;;;5075452;28;20407;-69
2021/05/04 10:50:54;;;;;;;4.53;2.63;;;11.20;99.90;;;;;;5075663;28;20426;-69
2021/05/04 10:53:21;;;;;;;2.33;2.20;;;11.30;99.90;;;;;;5077469;28;20386;-71
2021/05/04 10:55:53;;;;;;;5.67;3.20;;;11.30;99.90;;;;;;5079026;28;20415;-69
2021/05/04 10:58:26;;;;;;;4.67;2.93;;;11.50;99.90;;;;;;5090146;28;20430;-70
2021/05/04 11:00:53;;;;;;;2.97;2.70;;;11.60;99.90;;;;;;5084991;28;20493;-69
2021/05/04 11:03:34;;;;;;;5.33;3.03;;;11.80;99.90;;;;;;5094636;28;20411;-70
2021/05/04 11:06:11;;;;;;;3.50;2.40;;;11.90;99.90;;;;;;5091197;28;20502;-69
2021/05/04 11:08:40;;;;;;;2.63;2.43;;;12.00;99.90;;;;;;5081379;28;20763;-70
2021/05/04 11:11:24;;;;;;;4.40;3.00;;;12.20;99.90;;;;;;5076648;28;20404;-69
2021/05/04 11:13:58;;;;;;;4.50;2.70;;;12.20;99.90;;;;;;5060570;28;20490;-70
2021/05/04 11:16:41;;;;;;;5.83;2.33;;;12.20;99.90;;;;;;5056183;28;20428;-69
2021/05/04 11:19:09;;;;;;;5.70;2.73;;;12.20;99.90;;;;;;5063190;28;20446;-69
2021/05/04 11:21:48;;;;;;;5.40;2.77;;;12.20;99.90;;;;;;5064381;28;20467;-71
2021/05/04 11:24:19;;;;;;;6.30;2.90;;;12.20;99.90;;;;;;5055587;28;20925;-69
2021/05/04 11:26:56;;;;;;;5.17;2.70;;;12.20;99.90;;;;;;5054825;28;20405;-68
2021/05/04 11:29:37;;;;;;;8.00;3.00;;;12.30;99.90;;;;;;5056103;28;20440;-69
2021/05/04 11:32:39;;;;;;;6.03;2.90;;;12.40;99.90;;;;;;5062027;28;20876;-69
2021/05/04 11:35:06;;;;;;;6.40;3.07;;;12.50;99.90;;;;;;5055452;28;20416;-68
2021/05/04 11:37:44;;;;;;;6.00;2.83;;;12.60;99.90;;;;;;5054969;28;20416;-69
2021/05/04 11:40:14;;;;;;;14.40;3.37;;;12.70;99.90;;;;;;5054663;28;20561;-69
2021/05/04 11:42:42;;;;;;;7.20;2.57;;;12.70;99.90;;;;;;5054286;28;20437;-70
2021/05/04 11:45:20;;;;;;;10.17;3.10;;;12.70;99.60;;;;;;5053600;28;20381;-70
2021/05/04 11:47:57;;;;;;;9.97;2.80;;;12.70;99.30;;;;;;5052781;28;20389;-69
2021/05/04 11:50:28;;;;;;;7.07;3.03;;;12.60;97.40;;;;;;5050987;28;20428;-70
2021/05/04 11:52:58;;;;;;;8.20;2.43;;;12.60;97.70;;;;;;5052448;28;20399;-69
2021/05/04 11:55:27;;;;;;;7.77;2.60;;;12.60;97.90;;;;;;5052228;28;20412;-69
2021/05/04 11:57:57;;;;;;;9.73;2.50;;;12.60;97.60;;;;;;5052033;28;20435;-69
2021/05/04 12:00:24;;;;;;;9.30;2.70;;;12.70;96.60;;;;;;5050447;28;20464;-69
2021/05/04 12:02:50;;;;;;;9.20;2.77;;;12.70;95.70;;;;;;5051777;28;20424;-69
2021/05/04 12:05:30;;;;;;;5.90;2.27;;;12.80;95.50;;;;;;5052407;28;20940;-70
2021/05/04 12:07:57;;;;;;;3.67;1.93;;;12.90;94.70;;;;;;5053821;28;20482;-69
2021/05/04 12:10:25;;;;;;;7.43;3.13;;;13.00;95.00;;;;;;5056713;28;20404;-69
2021/05/04 12:12:57;;;;;;;10.67;3.13;;;13.10;95.10;;;;;;5058236;28;20574;-69
2021/05/04 12:15:24;;;;;;;7.50;3.27;;;13.00;94.60;;;;;;5055405;28;20396;-69
2021/05/04 12:17:57;;;;;;;11.57;2.63;;;13.00;94.80;;;;;;5054382;28;20412;-69
2021/05/04 12:20:25;;;;;;;10.40;3.73;;;13.10;94.80;;;;;;5072410;28;20544;-70
2021/05/04 12:22:52;;;;;;;14.00;3.83;;;13.10;94.90;;;;;;5074144;28;20419;-70
2021/05/04 12:25:28;;;;;;;11.10;2.40;;;12.90;95.10;;;;;;5073741;28;20884;-69
2021/05/04 12:27:55;;;;;;;6.13;2.87;;;12.90;94.60;;;;;;5074946;28;20392;-69
2021/05/04 12:30:24;;;;;;;13.10;3.93;;;12.90;94.90;;;;;;5074542;28;20454;-69
2021/05/04 12:32:50;;;;;;;6.47;2.70;;;12.80;94.00;;;;;;5074744;28;20911;-69
2021/05/04 12:35:42;;;;;;;8.17;3.10;;;12.80;93.90;;;;;;5074703;28;20411;-70
2021/05/04 12:38:19;;;;;;;7.87;2.60;;;12.70;93.50;;;;;;5076084;28;20793;-69
2021/05/04 12:40:56;;;;;;;10.97;2.67;;;12.70;93.40;;;;;;5076283;28;20445;-68
2021/05/04 12:43:26;;;;;;;7.70;3.10;;;12.70;93.10;;;;;;5076387;28;20417;-69
2021/05/04 12:46:12;;;;;;;6.83;2.53;;;12.70;93.10;;;;;;5076318;28;20408;-68
2021/05/04 12:48:40;;;;;;;5.97;2.50;;;12.70;92.60;;;;;;5075669;28;20403;-68
2021/05/04 12:51:30;;;;;;;6.53;2.50;;;12.80;92.40;;;;;;5075503;28;20404;-69
2021/05/04 12:54:08;;;;;;;12.10;3.03;;;12.80;92.30;;;;;;5075725;28;20396;-68
2021/05/04 12:56:34;;;;;;;10.40;2.80;;;12.90;92.50;;;;;;5079297;28;20414;-69
2021/05/04 12:59:06;;;;;;;6.93;2.27;;;12.90;92.10;;;;;;5078215;28;20431;-70